createdAt,value
2023-05-20T00:00:12.997Z,998.74
2023-05-20T00:01:13.013Z,998.85
2023-05-20T00:02:12.978Z,998.93
2023-05-20T00:03:13.020Z,998.79
2023-05-20T00:04:12.989Z,998.78
2023-05-20T00:05:12.955Z,998.73
2023-05-20T00:06:12.972Z,998.80
2023-05-20T00:07:12.944Z,998.74
2023-05-20T00:08:12.932Z,998.82
2023-05-20T00:09:12.936Z,998.82
2023-05-20T00:10:12.939Z,998.75
2023-05-20T00:11:12.932Z,998.83
2023-05-20T00:12:12.902Z,998.83
2023-05-20T00:13:12.889Z,998.82
2023-05-20T00:14:12.900Z,998.76
2023-05-20T00:15:12.939Z,998.86
2023-05-20T00:16:12.925Z,998.93
2023-05-20T00:17:12.863Z,998.81
2023-05-20T00:18:12.888Z,998.79
2023-05-20T00:19:12.880Z,998.78
2023-05-20T00:20:12.863Z,998.75
2023-05-20T00:21:12.834Z,998.73
2023-05-20T00:22:12.819Z,998.75
2023-05-20T00:23:12.820Z,998.80
2023-05-20T00:24:12.832Z,998.77
2023-05-20T00:25:12.817Z,998.75
2023-05-20T00:26:12.793Z,998.78
2023-05-20T00:27:12.781Z,998.74
2023-05-20T00:28:12.774Z,998.74
2023-05-20T00:29:12.792Z,998.63
2023-05-20T00:30:12.765Z,998.68
2023-05-20T00:31:12.745Z,998.68
2023-05-20T00:32:12.808Z,998.69
2023-05-20T00:33:12.823Z,998.68
2023-05-20T00:34:12.756Z,998.70
2023-05-20T00:35:12.713Z,998.70
2023-05-20T00:36:12.709Z,998.73
2023-05-20T00:37:12.702Z,998.69
2023-05-20T00:38:12.695Z,998.65
2023-05-20T00:39:12.728Z,998.77
2023-05-20T00:40:14.228Z,998.70
2023-05-20T00:41:12.676Z,998.70
2023-05-20T00:42:12.651Z,998.73
2023-05-20T00:43:12.673Z,998.69
2023-05-20T00:44:12.663Z,998.65
2023-05-20T00:45:12.637Z,998.68
2023-05-20T00:46:12.656Z,998.59
2023-05-20T00:47:12.622Z,998.65
2023-05-20T00:48:12.719Z,998.57
2023-05-20T00:49:12.606Z,998.62
2023-05-20T00:50:12.588Z,998.66
2023-05-20T00:51:12.584Z,998.73
2023-05-20T00:52:12.580Z,998.57
2023-05-20T00:53:12.594Z,998.63
2023-05-20T00:54:12.556Z,998.55
2023-05-20T00:55:12.560Z,998.70
2023-05-20T00:56:12.546Z,998.61
2023-05-20T00:57:12.576Z,998.68
2023-05-20T00:58:12.568Z,998.60
2023-05-20T00:59:12.513Z,998.63
2023-05-20T01:00:12.506Z,998.62
2023-05-20T01:01:12.549Z,998.61
2023-05-20T01:02:12.539Z,998.57
2023-05-20T01:03:12.602Z,998.56
2023-05-20T01:04:12.481Z,998.59
2023-05-20T01:05:12.468Z,998.61
2023-05-20T01:06:12.462Z,998.57
2023-05-20T01:07:12.484Z,998.53
2023-05-20T01:08:12.454Z,998.56
2023-05-20T01:09:12.441Z,998.61
2023-05-20T01:10:12.433Z,998.54
2023-05-20T01:11:12.426Z,998.54
2023-05-20T01:12:12.437Z,998.46
2023-05-20T01:13:12.420Z,998.39
2023-05-20T01:14:12.391Z,998.56
2023-05-20T01:15:12.396Z,998.45
2023-05-20T01:16:12.488Z,998.56
2023-05-20T01:17:12.397Z,998.42
2023-05-20T01:18:12.412Z,998.41
2023-05-20T01:19:12.370Z,998.49
2023-05-20T01:20:12.355Z,998.50
2023-05-20T01:21:12.384Z,998.37
2023-05-20T01:22:12.335Z,998.47
2023-05-20T01:23:12.336Z,998.46
2023-05-20T01:24:12.342Z,998.39
2023-05-20T01:25:12.318Z,998.47
2023-05-20T01:26:12.333Z,998.42
2023-05-20T01:27:12.291Z,998.43
2023-05-20T01:28:12.297Z,998.37
2023-05-20T01:29:12.285Z,998.39
2023-05-20T01:30:12.268Z,998.36
2023-05-20T01:31:12.300Z,998.38
2023-05-20T01:32:12.257Z,998.40
2023-05-20T01:33:12.301Z,998.31
2023-05-20T01:34:13.239Z,998.29
2023-05-20T01:35:12.258Z,998.39
2023-05-20T01:36:12.241Z,998.33
2023-05-20T01:37:12.233Z,998.38
2023-05-20T01:38:12.209Z,998.38
2023-05-20T01:39:12.202Z,998.32
2023-05-20T01:40:12.243Z,998.33
2023-05-20T01:41:12.189Z,998.62
2023-05-20T01:42:12.172Z,998.41
2023-05-20T01:43:12.161Z,998.32
2023-05-20T01:44:12.166Z,998.30
2023-05-20T01:45:12.191Z,998.30
2023-05-20T01:46:12.197Z,998.34
2023-05-20T01:47:12.139Z,998.40
2023-05-20T01:48:12.199Z,998.35
2023-05-20T01:49:12.120Z,998.30
2023-05-20T01:50:12.186Z,998.41
2023-05-20T01:51:12.104Z,998.34
2023-05-20T01:52:12.102Z,998.34
2023-05-20T01:53:12.092Z,998.37
2023-05-20T01:54:12.106Z,998.27
2023-05-20T01:55:12.108Z,998.35
2023-05-20T01:56:12.078Z,998.21
2023-05-20T01:57:12.062Z,998.29
2023-05-20T01:58:12.068Z,998.26
2023-05-20T01:59:12.083Z,998.33
2023-05-20T02:00:12.046Z,998.32
2023-05-20T02:01:12.038Z,998.18
2023-05-20T02:02:12.055Z,998.29
2023-05-20T02:03:12.101Z,998.21
2023-05-20T02:04:12.045Z,998.29
2023-05-20T02:05:12.003Z,998.23
2023-05-20T02:06:12.016Z,998.26
2023-05-20T02:07:11.990Z,998.20
2023-05-20T02:08:12.028Z,998.27
2023-05-20T02:09:11.966Z,998.21
2023-05-20T02:10:11.964Z,998.28
2023-05-20T02:11:11.949Z,998.16
2023-05-20T02:12:11.943Z,998.22
2023-05-20T02:13:11.960Z,998.23
2023-05-20T02:14:11.930Z,998.23
2023-05-20T02:15:11.923Z,998.22
2023-05-20T02:16:11.939Z,998.20
2023-05-20T02:17:11.937Z,998.19
2023-05-20T02:18:11.998Z,998.21
2023-05-20T02:19:11.926Z,998.29
2023-05-20T02:20:11.917Z,998.24
2023-05-20T02:21:11.878Z,998.29
2023-05-20T02:22:11.922Z,998.26
2023-05-20T02:23:11.865Z,998.20
2023-05-20T02:24:11.899Z,998.27
2023-05-20T02:25:11.851Z,998.14
2023-05-20T02:26:11.850Z,998.13
2023-05-20T02:27:11.883Z,998.21
2023-05-20T02:28:11.825Z,998.18
2023-05-20T02:29:11.817Z,998.23
2023-05-20T02:30:11.822Z,998.13
2023-05-20T02:31:11.825Z,998.18
2023-05-20T02:32:11.820Z,998.19
2023-05-20T02:33:11.848Z,998.24
2023-05-20T02:34:11.802Z,998.14
2023-05-20T02:35:11.767Z,998.21
2023-05-20T02:36:11.796Z,998.16
2023-05-20T02:37:11.763Z,998.16
2023-05-20T02:38:11.762Z,998.19
2023-05-20T02:39:11.746Z,998.19
2023-05-20T02:40:12.738Z,998.13
2023-05-20T02:41:11.752Z,998.16
2023-05-20T02:42:11.723Z,998.07
2023-05-20T02:43:11.720Z,998.10
2023-05-20T02:44:11.708Z,998.06
2023-05-20T02:45:11.696Z,998.12
2023-05-20T02:46:11.754Z,998.13
2023-05-20T02:47:11.684Z,998.11
2023-05-20T02:48:11.674Z,998.12
2023-05-20T02:49:11.733Z,998.07
2023-05-20T02:50:11.677Z,998.06
2023-05-20T02:51:11.683Z,998.08
2023-05-20T02:52:11.643Z,998.09
2023-05-20T02:53:11.630Z,998.18
2023-05-20T02:54:11.624Z,998.10
2023-05-20T02:55:12.650Z,998.15
2023-05-20T02:56:11.605Z,998.18
2023-05-20T02:57:11.605Z,998.12
2023-05-20T02:58:11.600Z,998.16
2023-05-20T02:59:11.582Z,998.16
2023-05-20T03:00:11.600Z,998.27
2023-05-20T03:01:11.589Z,998.25
2023-05-20T03:02:11.564Z,998.24
2023-05-20T03:03:11.559Z,998.28
2023-05-20T03:04:11.650Z,998.20
2023-05-20T03:05:11.571Z,998.20
2023-05-20T03:06:11.525Z,998.15
2023-05-20T03:07:11.521Z,998.17
2023-05-20T03:08:11.509Z,998.16
2023-05-20T03:09:11.526Z,998.20
2023-05-20T03:10:11.538Z,998.21
2023-05-20T03:11:11.496Z,998.16
2023-05-20T03:12:11.479Z,998.10
2023-05-20T03:13:11.592Z,998.16
2023-05-20T03:14:11.510Z,998.23
2023-05-20T03:15:11.461Z,998.18
2023-05-20T03:16:11.462Z,998.19
2023-05-20T03:17:11.461Z,998.15
2023-05-20T03:18:11.433Z,998.21
2023-05-20T03:19:11.474Z,998.17
2023-05-20T03:20:11.424Z,998.15
2023-05-20T03:21:11.423Z,998.13
2023-05-20T03:22:11.398Z,998.31
2023-05-20T03:23:11.405Z,998.16
2023-05-20T03:24:12.419Z,998.10
2023-05-20T03:25:11.376Z,998.08
2023-05-20T03:26:11.386Z,998.07
2023-05-20T03:27:11.368Z,998.20
2023-05-20T03:28:11.386Z,998.12
2023-05-20T03:29:11.347Z,998.14
2023-05-20T03:30:11.340Z,998.12
2023-05-20T03:31:11.364Z,998.08
2023-05-20T03:32:11.323Z,998.12
2023-05-20T03:33:11.339Z,998.13
2023-05-20T03:34:11.318Z,998.11
2023-05-20T03:35:11.301Z,998.09
2023-05-20T03:36:11.292Z,998.12
2023-05-20T03:37:11.314Z,998.16
2023-05-20T03:38:11.308Z,998.10
2023-05-20T03:39:11.268Z,998.20
2023-05-20T03:40:11.291Z,998.10
2023-05-20T03:41:11.247Z,998.11
2023-05-20T03:42:11.266Z,998.10
2023-05-20T03:43:11.234Z,998.07
2023-05-20T03:44:11.229Z,998.11
2023-05-20T03:45:11.218Z,998.11
2023-05-20T03:46:11.227Z,998.13
2023-05-20T03:47:11.225Z,998.10
2023-05-20T03:48:11.195Z,998.09
2023-05-20T03:49:11.203Z,998.09
2023-05-20T03:50:11.178Z,998.01
2023-05-20T03:51:11.187Z,998.06
2023-05-20T03:52:11.183Z,998.10
2023-05-20T03:53:11.152Z,998.03
2023-05-20T03:54:11.146Z,998.11
2023-05-20T03:55:11.140Z,998.00
2023-05-20T03:56:11.172Z,998.12
2023-05-20T03:57:11.115Z,998.07
2023-05-20T03:58:11.106Z,998.17
2023-05-20T03:59:11.107Z,998.19
2023-05-20T04:00:11.094Z,998.14
2023-05-20T04:01:11.111Z,998.19
2023-05-20T04:02:11.089Z,998.22
2023-05-20T04:03:12.168Z,998.23
2023-05-20T04:04:11.134Z,998.11
2023-05-20T04:05:11.080Z,998.11
2023-05-20T04:06:11.075Z,998.17
2023-05-20T04:07:11.056Z,998.17
2023-05-20T04:08:11.037Z,998.19
2023-05-20T04:09:11.024Z,998.12
2023-05-20T04:10:11.043Z,998.11
2023-05-20T04:11:11.016Z,998.10
2023-05-20T04:12:11.008Z,998.13
2023-05-20T04:13:11.003Z,998.12
2023-05-20T04:14:10.999Z,998.20
2023-05-20T04:15:11.000Z,998.13
2023-05-20T04:16:10.988Z,998.17
2023-05-20T04:17:10.963Z,998.10
2023-05-20T04:18:10.991Z,998.18
2023-05-20T04:19:11.005Z,998.19
2023-05-20T04:20:10.978Z,998.14
2023-05-20T04:21:10.932Z,998.14
2023-05-20T04:22:10.924Z,998.17
2023-05-20T04:23:10.916Z,998.09
2023-05-20T04:24:10.936Z,998.19
2023-05-20T04:25:10.909Z,998.12
2023-05-20T04:26:10.907Z,998.25
2023-05-20T04:27:10.886Z,998.33
2023-05-20T04:28:10.893Z,998.14
2023-05-20T04:29:10.897Z,998.19
2023-05-20T04:30:10.859Z,998.14
2023-05-20T04:31:11.857Z,998.24
2023-05-20T04:32:11.065Z,998.22
2023-05-20T04:33:10.914Z,998.29
2023-05-20T04:34:10.858Z,998.31
2023-05-20T04:35:10.821Z,998.17
2023-05-20T04:36:10.817Z,998.35
2023-05-20T04:37:10.816Z,998.27
2023-05-20T04:38:10.826Z,998.26
2023-05-20T04:39:10.789Z,998.20
2023-05-20T04:40:10.781Z,998.19
2023-05-20T04:41:10.788Z,998.30
2023-05-20T04:42:10.775Z,998.33
2023-05-20T04:43:10.784Z,998.09
2023-05-20T04:44:10.752Z,998.20
2023-05-20T04:45:10.791Z,998.22
2023-05-20T04:46:10.786Z,998.06
2023-05-20T04:47:10.734Z,998.19
2023-05-20T04:48:10.859Z,998.23
2023-05-20T04:49:10.726Z,998.42
2023-05-20T04:50:10.697Z,998.26
2023-05-20T04:51:11.707Z,998.33
2023-05-20T04:52:10.728Z,998.36
2023-05-20T04:53:10.711Z,998.17
2023-05-20T04:54:10.676Z,998.22
2023-05-20T04:55:10.738Z,998.36
2023-05-20T04:56:10.668Z,998.27
2023-05-20T04:57:10.684Z,998.17
2023-05-20T04:58:10.660Z,998.25
2023-05-20T04:59:10.640Z,998.15
2023-05-20T05:00:10.630Z,998.14
2023-05-20T05:01:10.651Z,998.21
2023-05-20T05:02:10.643Z,998.17
2023-05-20T05:03:10.634Z,998.13
2023-05-20T05:04:10.693Z,998.22
2023-05-20T05:05:10.606Z,998.16
2023-05-20T05:06:10.611Z,998.13
2023-05-20T05:07:10.604Z,998.17
2023-05-20T05:08:10.570Z,998.02
2023-05-20T05:09:10.575Z,998.05
2023-05-20T05:10:10.604Z,998.13
2023-05-20T05:11:10.586Z,998.40
2023-05-20T05:12:10.554Z,998.15
2023-05-20T05:13:10.549Z,998.19
2023-05-20T05:14:10.531Z,998.21
2023-05-20T05:15:10.533Z,998.34
2023-05-20T05:16:10.559Z,998.31
2023-05-20T05:17:10.509Z,998.27
2023-05-20T05:18:10.542Z,998.20
2023-05-20T05:19:10.647Z,998.38
2023-05-20T05:20:10.523Z,998.15
2023-05-20T05:21:10.501Z,998.22
2023-05-20T05:22:10.471Z,998.22
2023-05-20T05:23:10.457Z,998.22
2023-05-20T05:24:10.456Z,998.18
2023-05-20T05:25:10.475Z,998.14
2023-05-20T05:26:10.454Z,998.15
2023-05-20T05:27:10.436Z,998.29
2023-05-20T05:28:10.426Z,998.17
2023-05-20T05:29:11.790Z,998.26
2023-05-20T05:30:11.435Z,998.19
2023-05-20T05:31:10.402Z,998.29
2023-05-20T05:32:10.462Z,998.13
2023-05-20T05:33:10.427Z,998.30
2023-05-20T05:34:10.374Z,998.29
2023-05-20T05:35:10.397Z,998.33
2023-05-20T05:36:10.362Z,998.41
2023-05-20T05:37:10.359Z,998.35
2023-05-20T05:38:10.345Z,998.26
2023-05-20T05:39:10.363Z,998.38
2023-05-20T05:40:10.352Z,998.20
2023-05-20T05:41:10.320Z,998.26
2023-05-20T05:42:10.310Z,998.28
2023-05-20T05:43:10.301Z,998.30
2023-05-20T05:44:10.326Z,998.32
2023-05-20T05:45:10.285Z,998.24
2023-05-20T05:46:10.280Z,998.26
2023-05-20T05:47:10.346Z,998.33
2023-05-20T05:48:10.289Z,998.31
2023-05-20T05:49:10.278Z,998.27
2023-05-20T05:50:10.252Z,998.25
2023-05-20T05:51:10.237Z,998.20
2023-05-20T05:52:10.233Z,998.32
2023-05-20T05:53:10.248Z,998.35
2023-05-20T05:54:10.248Z,998.21
2023-05-20T05:55:10.200Z,998.25
2023-05-20T05:56:10.194Z,998.28
2023-05-20T05:57:10.189Z,998.31
2023-05-20T05:58:10.241Z,998.28
2023-05-20T05:59:10.172Z,998.19
2023-05-20T06:00:10.164Z,998.45
2023-05-20T06:01:10.186Z,998.29
2023-05-20T06:02:10.183Z,998.28
2023-05-20T06:03:10.257Z,998.24
2023-05-20T06:04:10.175Z,998.27
2023-05-20T06:05:10.129Z,998.25
2023-05-20T06:06:10.120Z,998.34
2023-05-20T06:07:10.136Z,998.29
2023-05-20T06:08:10.129Z,998.25
2023-05-20T06:09:10.112Z,998.18
2023-05-20T06:10:10.090Z,998.30
2023-05-20T06:11:10.084Z,998.20
2023-05-20T06:12:11.390Z,998.25
2023-05-20T06:13:10.064Z,998.30
2023-05-20T06:14:10.064Z,998.33
2023-05-20T06:15:10.062Z,998.25
2023-05-20T06:16:10.067Z,998.22
2023-05-20T06:17:10.061Z,998.32
2023-05-20T06:18:10.083Z,998.24
2023-05-20T06:19:10.060Z,998.35
2023-05-20T06:20:10.030Z,998.37
2023-05-20T06:21:10.034Z,998.41
2023-05-20T06:22:10.028Z,998.31
2023-05-20T06:23:10.011Z,998.30
2023-05-20T06:24:09.988Z,998.25
2023-05-20T06:25:09.976Z,998.24
2023-05-20T06:26:09.986Z,998.23
2023-05-20T06:27:09.955Z,998.38
2023-05-20T06:28:09.952Z,998.34
2023-05-20T06:29:09.946Z,998.37
2023-05-20T06:30:09.934Z,998.32
2023-05-20T06:31:09.988Z,998.51
2023-05-20T06:32:09.930Z,998.24
2023-05-20T06:33:09.911Z,998.46
2023-05-20T06:34:09.943Z,998.28
2023-05-20T06:35:09.914Z,998.33
2023-05-20T06:36:09.913Z,998.28
2023-05-20T06:37:09.882Z,998.33
2023-05-20T06:38:09.900Z,998.30
2023-05-20T06:39:09.862Z,998.21
2023-05-20T06:40:09.886Z,998.25
2023-05-20T06:41:09.853Z,998.15
2023-05-20T06:42:09.845Z,998.17
2023-05-20T06:43:09.833Z,998.17
2023-05-20T06:44:09.824Z,998.10
2023-05-20T06:45:09.845Z,998.16
2023-05-20T06:46:09.833Z,998.19
2023-05-20T06:47:09.798Z,998.08
2023-05-20T06:48:09.838Z,998.20
2023-05-20T06:49:09.809Z,998.09
2023-05-20T06:50:09.814Z,998.00
2023-05-20T06:51:09.796Z,997.99
2023-05-20T06:52:09.753Z,998.04
2023-05-20T06:53:09.741Z,998.06
2023-05-20T06:54:10.770Z,998.05
2023-05-20T06:55:09.745Z,997.99
2023-05-20T06:56:09.728Z,997.98
2023-05-20T06:57:09.732Z,998.24
2023-05-20T06:58:09.720Z,997.74
2023-05-20T06:59:09.734Z,998.14
2023-05-20T07:00:09.704Z,998.04
2023-05-20T07:01:09.702Z,997.98
2023-05-20T07:02:09.768Z,998.04
2023-05-20T07:03:09.804Z,997.91
2023-05-20T07:04:09.700Z,998.00
2023-05-20T07:05:09.659Z,998.09
2023-05-20T07:06:09.650Z,997.97
2023-05-20T07:07:09.645Z,998.04
2023-05-20T07:08:09.682Z,998.00
2023-05-20T07:09:09.629Z,998.11
2023-05-20T07:10:09.616Z,998.08
2023-05-20T07:11:09.612Z,998.11
2023-05-20T07:12:09.601Z,998.08
2023-05-20T07:13:09.615Z,998.08
2023-05-20T07:14:09.585Z,998.14
2023-05-20T07:15:09.575Z,997.97
2023-05-20T07:16:09.600Z,998.03
2023-05-20T07:17:09.584Z,998.14
2023-05-20T07:18:09.689Z,997.93
2023-05-20T07:19:09.548Z,997.93
2023-05-20T07:20:09.536Z,998.01
2023-05-20T07:21:09.528Z,997.99
2023-05-20T07:22:09.543Z,997.88
2023-05-20T07:23:09.507Z,997.97
2023-05-20T07:24:09.511Z,998.10
2023-05-20T07:25:09.495Z,998.03
2023-05-20T07:26:09.487Z,997.92
2023-05-20T07:27:09.504Z,997.94
2023-05-20T07:28:09.473Z,997.91
2023-05-20T07:29:09.467Z,997.94
2023-05-20T07:30:09.462Z,997.92
2023-05-20T07:31:09.510Z,997.85
2023-05-20T07:32:09.606Z,997.96
2023-05-20T07:33:09.447Z,997.91
2023-05-20T07:34:09.433Z,997.97
2023-05-20T07:35:09.417Z,997.90
2023-05-20T07:36:11.065Z,997.90
2023-05-20T07:37:10.402Z,998.00
2023-05-20T07:38:09.398Z,998.02
2023-05-20T07:39:13.480Z,997.89
2023-05-20T07:40:10.395Z,997.78
2023-05-20T07:41:09.407Z,997.81
2023-05-20T07:42:09.369Z,997.74
2023-05-20T07:43:09.389Z,997.85
2023-05-20T07:44:09.350Z,997.87
2023-05-20T07:45:09.372Z,997.91
2023-05-20T07:46:09.426Z,997.74
2023-05-20T07:47:09.341Z,997.78
2023-05-20T07:48:09.329Z,997.73
2023-05-20T07:49:09.305Z,997.86
2023-05-20T07:50:09.336Z,998.03
2023-05-20T07:51:09.299Z,997.81
2023-05-20T07:52:09.299Z,997.80
2023-05-20T07:53:09.282Z,997.83
2023-05-20T07:54:09.278Z,997.89
2023-05-20T07:55:09.297Z,997.83
2023-05-20T07:56:09.267Z,997.74
2023-05-20T07:57:09.251Z,997.81
2023-05-20T07:58:09.239Z,997.88
2023-05-20T07:59:09.231Z,997.76
2023-05-20T08:00:09.247Z,997.87
2023-05-20T08:01:09.222Z,997.81
2023-05-20T08:02:09.258Z,997.77
2023-05-20T08:03:09.402Z,997.78
2023-05-20T08:04:09.278Z,997.75
2023-05-20T08:05:09.223Z,997.78
2023-05-20T08:06:09.177Z,997.69
2023-05-20T08:07:09.185Z,997.73
2023-05-20T08:08:09.164Z,997.76
2023-05-20T08:09:09.194Z,997.78
2023-05-20T08:10:09.157Z,997.72
2023-05-20T08:11:09.146Z,997.89
2023-05-20T08:12:09.143Z,997.87
2023-05-20T08:13:09.128Z,997.72
2023-05-20T08:14:09.142Z,997.88
2023-05-20T08:15:09.112Z,997.78
2023-05-20T08:16:09.104Z,997.82
2023-05-20T08:17:09.203Z,997.87
2023-05-20T08:18:09.169Z,997.74
2023-05-20T08:19:09.129Z,997.79
2023-05-20T08:20:09.073Z,997.85
2023-05-20T08:21:09.073Z,997.85
2023-05-20T08:22:09.056Z,997.89
2023-05-20T08:23:09.078Z,997.80
2023-05-20T08:24:09.041Z,997.84
2023-05-20T08:25:09.034Z,997.81
2023-05-20T08:26:09.017Z,997.77
2023-05-20T08:27:09.011Z,997.83
2023-05-20T08:28:09.035Z,997.74
2023-05-20T08:29:08.999Z,997.72
2023-05-20T08:30:08.993Z,997.84
2023-05-20T08:31:09.018Z,997.80
2023-05-20T08:32:08.997Z,997.79
2023-05-20T08:33:09.119Z,997.76
2023-05-20T08:34:08.960Z,997.76
2023-05-20T08:35:08.952Z,997.90
2023-05-20T08:36:08.961Z,997.84
2023-05-20T08:37:08.960Z,997.82
2023-05-20T08:38:08.936Z,997.88
2023-05-20T08:39:08.919Z,997.72
2023-05-20T08:40:08.951Z,997.78
2023-05-20T08:41:08.906Z,997.74
2023-05-20T08:42:08.924Z,997.75
2023-05-20T08:43:08.887Z,997.83
2023-05-20T08:44:08.885Z,997.70
2023-05-20T08:45:08.898Z,997.75
2023-05-20T08:46:08.897Z,997.96
2023-05-20T08:47:08.888Z,997.81
2023-05-20T08:48:08.889Z,997.73
2023-05-20T08:49:08.849Z,997.82
2023-05-20T08:50:08.838Z,997.77
2023-05-20T08:51:08.855Z,997.70
2023-05-20T08:52:08.820Z,997.74
2023-05-20T08:53:08.816Z,997.71
2023-05-20T08:54:08.834Z,998.02
2023-05-20T08:55:08.801Z,997.79
2023-05-20T08:56:08.825Z,997.63
2023-05-20T08:57:08.788Z,997.82
2023-05-20T08:58:08.782Z,997.74
2023-05-20T08:59:08.778Z,997.73
2023-05-20T09:00:08.811Z,997.75
2023-05-20T09:01:08.788Z,997.83
2023-05-20T09:02:08.857Z,997.74
2023-05-20T09:03:08.756Z,997.89
2023-05-20T09:04:08.727Z,997.80
2023-05-20T09:05:08.807Z,997.73
2023-05-20T09:06:08.750Z,997.82
2023-05-20T09:07:08.719Z,997.77
2023-05-20T09:08:08.716Z,997.77
2023-05-20T09:09:08.697Z,998.00
2023-05-20T09:10:08.710Z,997.81
2023-05-20T09:11:08.676Z,997.75
2023-05-20T09:12:08.666Z,997.80
2023-05-20T09:13:08.659Z,997.65
2023-05-20T09:14:08.663Z,997.60
2023-05-20T09:15:08.671Z,997.63
2023-05-20T09:16:08.717Z,997.68
2023-05-20T09:17:08.626Z,997.72
2023-05-20T09:18:08.745Z,997.66
2023-05-20T09:19:08.674Z,997.72
2023-05-20T09:20:08.631Z,997.70
2023-05-20T09:21:08.595Z,997.67
2023-05-20T09:22:08.588Z,997.72
2023-05-20T09:23:08.575Z,997.72
2023-05-20T09:24:08.596Z,997.73
2023-05-20T09:25:08.662Z,997.68
2023-05-20T09:26:08.602Z,997.65
2023-05-20T09:27:08.566Z,997.69
2023-05-20T09:28:08.611Z,997.73
2023-05-20T09:29:08.687Z,997.63
2023-05-20T09:30:08.525Z,997.95
2023-05-20T09:31:08.608Z,997.75
2023-05-20T09:32:08.669Z,997.57
2023-05-20T09:33:08.539Z,997.78
2023-05-20T09:34:08.523Z,997.62
2023-05-20T09:35:08.484Z,997.73
2023-05-20T09:36:08.478Z,997.66
2023-05-20T09:37:08.469Z,997.77
2023-05-20T09:38:08.519Z,997.68
2023-05-20T09:39:08.485Z,997.77
2023-05-20T09:40:08.456Z,997.75
2023-05-20T09:41:08.451Z,997.70
2023-05-20T09:42:08.435Z,997.64
2023-05-20T09:43:08.454Z,997.74
2023-05-20T09:44:08.458Z,997.96
2023-05-20T09:45:08.408Z,997.83
2023-05-20T09:46:08.500Z,997.72
2023-05-20T09:47:08.679Z,997.86
2023-05-20T09:48:09.463Z,997.75
2023-05-20T09:49:08.380Z,997.76
2023-05-20T09:50:08.424Z,997.76
2023-05-20T09:51:08.438Z,997.72
2023-05-20T09:52:08.356Z,997.91
2023-05-20T09:53:08.373Z,997.76
2023-05-20T09:54:08.413Z,997.58
2023-05-20T09:55:08.348Z,997.62
2023-05-20T09:56:08.335Z,997.69
2023-05-20T09:57:08.353Z,997.80
2023-05-20T09:58:08.348Z,997.65
2023-05-20T09:59:08.303Z,997.67
2023-05-20T10:00:08.293Z,997.67
2023-05-20T10:01:08.357Z,997.61
2023-05-20T10:02:08.325Z,997.56
2023-05-20T10:03:08.394Z,997.55
2023-05-20T10:04:08.268Z,997.69
2023-05-20T10:05:08.267Z,997.59
2023-05-20T10:06:08.256Z,997.61
2023-05-20T10:07:08.281Z,997.69
2023-05-20T10:08:08.245Z,997.55
2023-05-20T10:09:08.236Z,997.58
2023-05-20T10:10:08.219Z,997.53
2023-05-20T10:11:08.242Z,997.62
2023-05-20T10:12:08.234Z,997.52
2023-05-20T10:13:08.198Z,997.52
2023-05-20T10:14:08.189Z,997.60
2023-05-20T10:15:08.173Z,997.46
2023-05-20T10:16:08.272Z,997.46
2023-05-20T10:17:08.164Z,997.49
2023-05-20T10:18:08.161Z,997.39
2023-05-20T10:19:08.188Z,997.41
2023-05-20T10:20:08.140Z,997.47
2023-05-20T10:21:08.165Z,997.41
2023-05-20T10:22:08.128Z,997.50
2023-05-20T10:23:08.119Z,997.32
2023-05-20T10:24:08.171Z,997.42
2023-05-20T10:25:08.094Z,997.51
2023-05-20T10:26:09.123Z,997.37
2023-05-20T10:27:08.105Z,997.31
2023-05-20T10:28:08.135Z,997.32
2023-05-20T10:29:09.291Z,997.38
2023-05-20T10:30:08.099Z,997.35
2023-05-20T10:31:08.080Z,997.35
2023-05-20T10:32:08.099Z,997.32
2023-05-20T10:33:08.143Z,997.31
2023-05-20T10:34:08.074Z,997.28
2023-05-20T10:35:08.043Z,997.27
2023-05-20T10:36:08.053Z,997.42
2023-05-20T10:37:08.008Z,997.34
2023-05-20T10:38:08.008Z,997.26
2023-05-20T10:39:07.993Z,997.30
2023-05-20T10:40:08.022Z,997.27
2023-05-20T10:41:07.978Z,997.27
2023-05-20T10:42:07.961Z,997.23
2023-05-20T10:43:07.954Z,997.28
2023-05-20T10:44:07.990Z,997.24
2023-05-20T10:45:08.002Z,997.23
2023-05-20T10:46:13.764Z,997.21
2023-05-20T10:47:24.751Z,997.23
2023-05-20T10:48:09.974Z,997.25
2023-05-20T10:49:08.108Z,997.18
2023-05-20T10:50:07.905Z,997.17
2023-05-20T10:51:07.896Z,997.12
2023-05-20T10:52:07.880Z,997.16
2023-05-20T10:53:13.260Z,997.26
2023-05-20T10:54:08.904Z,997.23
2023-05-20T10:55:07.883Z,997.16
2023-05-20T10:56:07.853Z,997.20
2023-05-20T10:57:07.852Z,997.19
2023-05-20T10:58:07.855Z,997.15
2023-05-20T10:59:07.857Z,997.29
2023-05-20T11:00:07.837Z,997.25
2023-05-20T11:01:07.834Z,997.20
2023-05-20T11:02:07.816Z,997.21
2023-05-20T11:03:07.926Z,997.13
2023-05-20T11:04:08.005Z,997.23
2023-05-20T11:05:07.786Z,997.31
2023-05-20T11:06:07.777Z,997.18
2023-05-20T11:07:07.773Z,997.20
2023-05-20T11:08:16.858Z,997.26
2023-05-20T11:09:09.779Z,997.19
2023-05-20T11:10:07.739Z,997.28
2023-05-20T11:11:07.753Z,997.31
2023-05-20T11:12:07.759Z,997.22
2023-05-20T11:13:07.883Z,997.24
2023-05-20T11:14:07.711Z,997.21
2023-05-20T11:15:07.708Z,997.23
2023-05-20T11:16:07.769Z,997.19
2023-05-20T11:17:07.756Z,997.30
2023-05-20T11:18:07.825Z,997.25
2023-05-20T11:19:07.766Z,997.25
2023-05-20T11:20:07.673Z,997.36
2023-05-20T11:21:07.666Z,997.29
2023-05-20T11:22:07.679Z,997.24
2023-05-20T11:23:07.682Z,997.22
2023-05-20T11:24:07.652Z,997.16
2023-05-20T11:25:07.641Z,997.11
2023-05-20T11:26:07.629Z,997.15
2023-05-20T11:27:07.647Z,997.17
2023-05-20T11:28:07.617Z,997.16
2023-05-20T11:29:07.603Z,997.13
2023-05-20T11:30:07.593Z,997.16
2023-05-20T11:31:07.590Z,997.11
2023-05-20T11:32:07.690Z,997.14
2023-05-20T11:33:07.617Z,997.12
2023-05-20T11:34:07.569Z,997.05
2023-05-20T11:35:07.573Z,997.10
2023-05-20T11:36:13.495Z,997.20
2023-05-20T11:37:09.616Z,996.88
2023-05-20T11:38:07.525Z,997.02
2023-05-20T11:39:07.524Z,997.25
2023-05-20T11:40:07.510Z,997.06
2023-05-20T11:41:07.539Z,997.04
2023-05-20T11:42:07.519Z,996.97
2023-05-20T11:43:07.495Z,997.12
2023-05-20T11:44:07.484Z,997.04
2023-05-20T11:45:07.490Z,997.01
2023-05-20T11:46:07.504Z,996.96
2023-05-20T11:47:07.454Z,997.00
2023-05-20T11:48:07.573Z,997.07
2023-05-20T11:49:07.437Z,997.22
2023-05-20T11:50:07.437Z,997.07
2023-05-20T11:51:07.447Z,997.01
2023-05-20T11:52:07.434Z,997.18
2023-05-20T11:53:07.411Z,997.03
2023-05-20T11:54:07.405Z,997.09
2023-05-20T11:55:07.437Z,997.03
2023-05-20T11:56:07.421Z,997.02
2023-05-20T11:57:07.413Z,997.03
2023-05-20T11:58:07.386Z,997.00
2023-05-20T11:59:07.370Z,996.91
2023-05-20T12:00:07.396Z,997.01
2023-05-20T12:01:21.036Z,996.89
2023-05-20T12:02:09.396Z,997.27
2023-05-20T12:03:07.399Z,996.90
2023-05-20T12:04:07.480Z,997.01
2023-05-20T12:05:07.349Z,996.94
2023-05-20T12:06:07.308Z,996.82
2023-05-20T12:07:07.312Z,996.83
2023-05-20T12:08:07.286Z,996.84
2023-05-20T12:09:08.312Z,996.81
2023-05-20T12:10:07.302Z,996.79
2023-05-20T12:11:07.282Z,996.77
2023-05-20T12:12:07.289Z,996.70
2023-05-20T12:13:07.257Z,996.75
2023-05-20T12:14:07.301Z,996.79
2023-05-20T12:15:07.236Z,996.76
2023-05-20T12:16:07.258Z,996.78
2023-05-20T12:17:07.222Z,996.82
2023-05-20T12:18:07.263Z,996.74
2023-05-20T12:19:07.250Z,996.67
2023-05-20T12:20:07.209Z,996.71
2023-05-20T12:21:07.192Z,996.82
2023-05-20T12:22:07.195Z,996.95
2023-05-20T12:23:07.191Z,996.72
2023-05-20T12:24:07.261Z,996.73
2023-05-20T12:25:07.160Z,996.79
2023-05-20T12:26:07.154Z,996.65
2023-05-20T12:27:07.149Z,996.67
2023-05-20T12:28:07.165Z,996.66